Time;durP1;ratioP1;P1;durP2;ratioP2;P2;SDS_P1;SDS_P2;PMS_P1;PMS_P2;Temp;Humidity;BMP_temperature;BMP_pressure;BME280_temperature;BME280_humidity;BME280_pressure;Samples;Min_cycle;Max_cycle;Signal;HPM_P1;HPM_P2
2022/01/29 00:01:03;;;;;;;30.58;9.88;;;;;;;;;;5063775;28;20044;-52
2022/01/29 00:03:32;;;;;;;30.85;9.07;;;6.70;99.90;;;;;;5064420;28;20498;-52
2022/01/29 00:05:59;;;;;;;32.00;9.73;;;6.80;99.90;;;;;;5064296;28;20032;-52
2022/01/29 00:08:25;;;;;;;31.52;10.38;;;6.80;99.90;;;;;;5064838;28;20116;-53
2022/01/29 00:11:00;;;;;;;27.63;11.13;;;6.70;99.90;;;;;;5063118;28;20062;-52
2022/01/29 00:13:26;;;;;;;31.48;12.45;;;6.70;99.90;;;;;;5062135;28;20515;-50
2022/01/29 00:15:51;;;;;;;30.10;10.68;;;6.70;99.90;;;;;;5061451;28;20041;-53
2022/01/29 00:18:17;;;;;;;33.42;13.05;;;6.70;99.90;;;;;;5063528;28;20422;-52
2022/01/29 00:20:43;;;;;;;23.63;9.52;;;6.70;99.90;;;;;;5063243;28;20049;-53
2022/01/29 00:23:08;;;;;;;33.85;12.20;;;6.60;99.90;;;;;;5062429;28;20060;-51
2022/01/29 00:25:34;;;;;;;30.42;12.63;;;6.60;99.90;;;;;;5062098;28;20051;-51
2022/01/29 00:28:00;;;;;;;30.08;13.82;;;6.50;99.90;;;;;;5044528;28;20429;-53
2022/01/29 00:30:32;;;;;;;32.20;14.30;;;6.60;99.90;;;;;;5062683;28;20433;-52
2022/01/29 00:32:59;;;;;;;34.75;14.70;;;6.50;99.90;;;;;;5062164;28;20037;-51
2022/01/29 00:35:25;;;;;;;38.67;15.35;;;6.40;99.90;;;;;;5062379;28;20126;-52
2022/01/29 00:37:51;;;;;;;32.20;13.63;;;6.40;99.90;;;;;;5063634;28;20408;-53
2022/01/29 00:40:16;;;;;;;32.60;15.10;;;6.50;99.90;;;;;;5061887;28;20108;-52
2022/01/29 00:42:42;;;;;;;30.23;14.18;;;;;;;;;;5061756;28;20510;-51
2022/01/29 00:45:08;;;;;;;38.85;14.23;;;6.60;99.90;;;;;;5062471;28;20488;-54
2022/01/29 00:47:34;;;;;;;36.35;15.23;;;6.60;99.90;;;;;;5060394;28;20064;-54
2022/01/29 00:50:00;;;;;;;35.70;15.02;;;6.50;99.90;;;;;;5062272;28;20068;-49
2022/01/29 00:52:26;;;;;;;33.72;14.10;;;;;;;;;;5061881;28;20106;-48
2022/01/29 00:54:52;;;;;;;28.83;13.63;;;6.60;99.90;;;;;;5062105;28;20044;-52
2022/01/29 00:57:18;;;;;;;38.75;15.80;;;6.60;99.90;;;;;;5061367;28;20052;-48
2022/01/29 00:59:44;;;;;;;42.65;15.60;;;6.60;99.90;;;;;;5062143;28;20039;-48
2022/01/29 01:02:12;;;;;;;35.85;14.85;;;6.60;99.90;;;;;;5061243;28;20189;-52
2022/01/29 01:04:39;;;;;;;40.40;14.90;;;6.60;99.90;;;;;;5061363;28;20044;-50
2022/01/29 01:07:09;;;;;;;36.83;14.80;;;6.70;99.90;;;;;;5063954;28;20032;-52
2022/01/29 01:09:35;;;;;;;33.80;14.90;;;6.70;99.90;;;;;;5062281;28;20071;-52
2022/01/29 01:12:02;;;;;;;31.33;14.85;;;6.70;99.90;;;;;;5061924;28;20123;-50
2022/01/29 01:14:27;;;;;;;37.15;14.75;;;6.60;99.90;;;;;;5062239;28;20037;-48
2022/01/29 01:16:53;;;;;;;34.88;14.25;;;6.60;99.90;;;;;;5062299;28;20036;-53
2022/01/29 01:19:19;;;;;;;40.35;15.65;;;6.80;99.90;;;;;;5062957;28;20032;-47
2022/01/29 01:21:45;;;;;;;46.28;15.27;;;6.60;99.90;;;;;;5061675;28;20664;-48
2022/01/29 01:24:11;;;;;;;28.48;13.77;;;6.70;99.90;;;;;;5061956;28;20055;-50
2022/01/29 01:26:36;;;;;;;33.75;14.75;;;6.80;99.90;;;;;;5063088;28;20037;-53
2022/01/29 01:29:02;;;;;;;37.47;16.52;;;6.60;99.90;;;;;;5063388;28;20094;-51
2022/01/29 01:31:28;;;;;;;39.78;15.95;;;6.60;99.90;;;;;;5062582;28;20262;-52
2022/01/29 01:33:53;;;;;;;45.20;17.02;;;6.80;99.90;;;;;;5062292;28;20041;-51
2022/01/29 01:36:23;;;;;;;37.00;16.13;;;6.80;99.90;;;;;;5062977;28;20696;-51
2022/01/29 01:39:00;;;;;;;39.47;17.30;;;;;;;;;;5062982;28;20366;-50
2022/01/29 01:41:27;;;;;;;35.03;16.52;;;6.70;99.90;;;;;;5061429;28;20539;-50
2022/01/29 01:44:00;;;;;;;33.00;16.52;;;6.70;99.90;;;;;;5061801;28;20041;-53
2022/01/29 01:46:28;;;;;;;36.50;16.45;;;6.90;99.90;;;;;;5062142;28;20056;-53
2022/01/29 01:48:54;;;;;;;34.20;15.68;;;6.80;99.90;;;;;;5059636;28;20497;-52
2022/01/29 01:51:20;;;;;;;36.95;15.57;;;6.90;99.90;;;;;;5061813;28;20032;-50
2022/01/29 01:53:46;;;;;;;40.67;15.05;;;6.60;99.90;;;;;;5060617;28;20585;-51
2022/01/29 01:56:12;;;;;;;34.15;15.85;;;6.90;99.90;;;;;;5061128;28;20205;-52
2022/01/29 01:58:37;;;;;;;34.78;16.10;;;6.90;99.90;;;;;;5060875;28;20528;-51
2022/01/29 02:01:03;;;;;;;27.83;14.85;;;6.90;99.90;;;;;;5062045;28;20037;-51
2022/01/29 02:03:29;;;;;;;38.13;14.95;;;6.90;99.90;;;;;;5061128;28;20115;-53
2022/01/29 02:05:57;;;;;;;34.28;14.20;;;7.00;99.90;;;;;;5061496;28;20493;-51
2022/01/29 02:08:22;;;;;;;38.70;13.45;;;7.00;99.90;;;;;;5060843;28;20054;-51
2022/01/29 02:10:49;;;;;;;41.38;15.10;;;6.90;99.90;;;;;;5062150;28;20127;-54
2022/01/29 02:13:18;;;;;;;39.38;15.43;;;7.00;99.90;;;;;;5059829;28;20583;-54
2022/01/29 02:15:46;;;;;;;39.45;16.48;;;7.00;99.90;;;;;;5060770;28;20411;-53
2022/01/29 02:18:15;;;;;;;31.77;14.18;;;6.80;99.90;;;;;;5060453;28;20044;-51
2022/01/29 02:20:44;;;;;;;37.47;14.25;;;8.20;99.90;;;;;;5059766;28;20139;-52
2022/01/29 02:23:10;;;;;;;32.13;13.75;;;7.10;99.90;;;;;;5060883;28;20044;-51
2022/01/29 02:25:47;;;;;;;44.50;14.70;;;7.10;99.90;;;;;;5061030;28;21369;-51
2022/01/29 02:28:24;;;;;;;30.52;12.55;;;7.10;99.90;;;;;;5060093;28;20146;-53
2022/01/29 02:30:58;;;;;;;35.20;14.07;;;7.20;99.90;;;;;;5060592;28;20400;-52
2022/01/29 02:33:26;;;;;;;35.05;14.43;;;7.40;99.90;;;;;;5060501;28;20037;-50
2022/01/29 02:35:54;;;;;;;28.33;12.45;;;7.10;99.90;;;;;;5059730;28;20044;-53
2022/01/29 02:38:23;;;;;;;28.95;12.45;;;7.20;99.90;;;;;;5061738;28;20064;-52
2022/01/29 02:40:52;;;;;;;33.58;13.38;;;7.20;99.90;;;;;;5061431;28;20090;-50
2022/01/29 02:43:22;;;;;;;38.20;13.25;;;7.70;99.90;;;;;;5061136;28;20405;-50
2022/01/29 02:45:50;;;;;;;31.98;12.82;;;7.20;99.90;;;;;;5061546;28;20049;-52
2022/01/29 02:48:16;;;;;;;35.15;14.60;;;7.20;99.90;;;;;;5061273;28;20052;-52
2022/01/29 02:50:42;;;;;;;36.00;14.60;;;7.20;99.90;;;;;;5058545;28;20047;-52
2022/01/29 02:53:09;;;;;;;31.98;14.82;;;7.30;99.90;;;;;;5062643;28;20044;-53
2022/01/29 02:55:34;;;;;;;31.88;14.40;;;8.40;99.90;;;;;;5060839;28;20039;-50
2022/01/29 02:58:01;;;;;;;34.35;14.82;;;7.40;99.90;;;;;;5060779;28;20037;-52
2022/01/29 03:00:27;;;;;;;37.40;15.18;;;7.30;99.90;;;;;;5061124;28;20401;-53
2022/01/29 03:02:55;;;;;;;31.98;14.77;;;7.40;99.90;;;;;;5063912;28;20040;-52
2022/01/29 03:05:21;;;;;;;28.83;13.55;;;7.90;99.90;;;;;;5066526;28;20072;-51
2022/01/29 03:07:46;;;;;;;32.47;14.27;;;7.20;99.90;;;;;;5065892;28;20090;-53
2022/01/29 03:10:12;;;;;;;30.30;15.00;;;7.40;99.90;;;;;;5064667;28;20036;-53
2022/01/29 03:12:40;;;;;;;37.58;15.52;;;7.30;99.90;;;;;;5064739;28;20036;-53
2022/01/29 03:15:10;;;;;;;32.05;15.25;;;7.30;99.90;;;;;;5062550;28;20091;-54
2022/01/29 03:17:38;;;;;;;33.65;14.55;;;7.40;99.90;;;;;;5060818;28;20044;-48
2022/01/29 03:20:05;;;;;;;30.20;13.23;;;7.50;99.90;;;;;;5063901;28;20378;-52
2022/01/29 03:22:31;;;;;;;31.75;14.13;;;7.40;99.90;;;;;;5062342;28;20566;-48
2022/01/29 03:24:56;;;;;;;35.55;15.43;;;7.30;99.90;;;;;;5063369;28;20086;-49
2022/01/29 03:27:22;;;;;;;32.30;14.00;;;7.50;99.90;;;;;;5064624;28;20048;-51
2022/01/29 03:29:48;;;;;;;39.35;15.95;;;7.40;99.90;;;;;;5063796;28;20162;-49
2022/01/29 03:32:16;;;;;;;30.55;13.77;;;7.50;99.90;;;;;;5063835;28;20548;-51
2022/01/29 03:34:41;;;;;;;29.73;13.48;;;7.50;99.90;;;;;;5063592;28;20044;-51
2022/01/29 03:37:07;;;;;;;25.58;14.18;;;8.80;99.90;;;;;;5065070;28;20055;-51
2022/01/29 03:39:36;;;;;;;31.70;15.02;;;8.30;99.90;;;;;;5063910;28;20044;-50
2022/01/29 03:42:06;;;;;;;29.52;13.90;;;7.60;99.90;;;;;;5064065;28;20493;-51
2022/01/29 03:44:32;;;;;;;30.23;12.90;;;7.60;99.90;;;;;;5063170;28;20089;-50
2022/01/29 03:46:58;;;;;;;31.20;16.95;;;7.50;99.90;;;;;;5063564;28;20787;-48
2022/01/29 03:49:24;;;;;;;29.77;14.07;;;7.40;99.90;;;;;;5064208;28;20036;-46
2022/01/29 03:51:49;;;;;;;31.40;14.95;;;7.40;99.90;;;;;;5062860;28;20044;-52
2022/01/29 03:54:15;;;;;;;32.63;15.45;;;8.20;99.90;;;;;;5063405;28;20067;-51
2022/01/29 03:56:41;;;;;;;31.38;15.63;;;7.90;99.90;;;;;;5063575;28;20064;-50
2022/01/29 03:59:06;;;;;;;31.95;14.45;;;7.50;99.90;;;;;;5064043;28;20385;-51
2022/01/29 04:01:32;;;;;;;33.85;15.63;;;7.70;99.90;;;;;;5063276;28;20520;-52
2022/01/29 04:03:58;;;;;;;32.10;14.63;;;7.60;99.90;;;;;;5064355;28;20440;-49
2022/01/29 04:06:24;;;;;;;31.30;14.70;;;7.60;99.90;;;;;;5064331;28;20032;-52
2022/01/29 04:08:50;;;;;;;30.27;15.20;;;7.40;99.90;;;;;;5065602;28;20037;-48
2022/01/29 04:11:16;;;;;;;36.45;14.63;;;7.40;99.90;;;;;;5063678;28;20051;-49
2022/01/29 04:13:46;;;;;;;33.05;15.38;;;7.40;99.90;;;;;;5062257;28;20044;-52
2022/01/29 04:16:13;;;;;;;35.75;15.38;;;7.50;99.90;;;;;;5063476;28;20119;-49
2022/01/29 04:18:42;;;;;;;37.08;15.45;;;7.50;99.90;;;;;;5064388;28;20055;-49
2022/01/29 04:21:08;;;;;;;33.97;14.93;;;7.70;99.90;;;;;;5063372;28;20056;-52
2022/01/29 04:23:35;;;;;;;27.70;14.57;;;7.50;99.90;;;;;;5062892;28;20044;-51
2022/01/29 04:26:02;;;;;;;36.20;15.85;;;7.70;99.90;;;;;;5062986;28;20516;-48
2022/01/29 04:28:35;;;;;;;35.30;15.68;;;7.70;99.90;;;;;;5062400;28;20081;-52
2022/01/29 04:31:07;;;;;;;29.27;14.90;;;7.50;99.90;;;;;;5063267;28;20501;-53
2022/01/29 04:33:33;;;;;;;40.80;16.52;;;7.70;99.90;;;;;;5062802;28;20040;-50
2022/01/29 04:36:01;;;;;;;29.55;14.93;;;7.60;99.90;;;;;;5063038;28;20120;-48
2022/01/29 04:38:28;;;;;;;29.02;14.98;;;7.70;99.90;;;;;;5063277;28;20421;-51
2022/01/29 04:40:57;;;;;;;27.45;15.02;;;7.70;99.90;;;;;;5062481;28;20045;-50
2022/01/29 04:43:23;;;;;;;32.05;15.80;;;8.90;99.90;;;;;;5063055;28;20119;-48
2022/01/29 04:45:49;;;;;;;32.40;15.60;;;7.60;99.90;;;;;;5062512;28;20060;-49
2022/01/29 04:48:14;;;;;;;32.10;15.82;;;7.70;99.90;;;;;;5062360;28;20032;-46
2022/01/29 04:50:40;;;;;;;27.58;14.77;;;7.60;99.90;;;;;;5062171;28;20257;-50
2022/01/29 04:53:07;;;;;;;30.52;14.35;;;7.70;99.90;;;;;;5062391;28;20044;-49
2022/01/29 04:55:36;;;;;;;34.90;16.90;;;7.70;99.90;;;;;;5061644;28;20331;-52
2022/01/29 04:58:02;;;;;;;36.38;16.27;;;7.70;99.90;;;;;;5061697;28;20040;-50
2022/01/29 05:00:28;;;;;;;31.83;15.10;;;7.60;99.90;;;;;;5062164;28;20053;-52
2022/01/29 05:03:04;;;;;;;26.50;14.00;;;7.70;99.90;;;;;;5061958;28;20024;-49
2022/01/29 05:05:32;;;;;;;25.58;13.27;;;8.30;99.90;;;;;;5060100;28;20040;-51
2022/01/29 05:07:57;;;;;;;25.75;14.80;;;7.60;99.90;;;;;;5063102;28;20040;-51
2022/01/29 05:10:23;;;;;;;32.50;14.65;;;8.40;99.90;;;;;;5044470;28;20059;-50
2022/01/29 05:12:58;;;;;;;30.02;15.02;;;8.80;99.90;;;;;;5060533;28;20064;-52
2022/01/29 05:15:37;;;;;;;27.45;14.20;;;7.70;99.90;;;;;;5061242;28;20059;-51
2022/01/29 05:29:04;;;;;;;25.25;14.65;;;7.80;99.90;;;;;;5062340;28;20571;-52
2022/01/29 05:31:30;;;;;;;27.60;14.00;;;8.00;99.90;;;;;;5062493;28;20131;-51
2022/01/29 05:33:56;;;;;;;31.20;13.40;;;8.50;99.90;;;;;;5062287;28;20136;-47
2022/01/29 05:36:22;;;;;;;26.90;14.95;;;8.70;99.90;;;;;;5062016;28;20055;-50
2022/01/29 05:38:48;;;;;;;29.17;14.05;;;7.90;99.90;;;;;;5062549;28;20040;-50
2022/01/29 05:41:14;;;;;;;30.52;15.27;;;8.00;99.90;;;;;;5060359;28;20146;-49
2022/01/29 05:43:43;;;;;;;27.70;15.32;;;8.00;99.90;;;;;;5061809;28;20125;-52
2022/01/29 05:46:11;;;;;;;24.58;13.85;;;7.90;99.90;;;;;;5061788;28;20071;-52
2022/01/29 05:48:37;;;;;;;23.67;13.38;;;7.90;99.90;;;;;;5062229;28;20094;-51
2022/01/29 05:51:03;;;;;;;30.23;14.88;;;8.00;99.90;;;;;;5061603;28;20041;-51
2022/01/29 05:53:30;;;;;;;23.48;14.65;;;7.80;99.90;;;;;;5061299;28;20070;-51
2022/01/29 05:55:56;;;;;;;32.40;14.85;;;8.00;99.90;;;;;;5062208;28;20036;-51
2022/01/29 05:58:22;;;;;;;24.13;14.85;;;8.00;99.90;;;;;;5062049;28;20032;-52
2022/01/29 06:00:47;;;;;;;38.13;17.25;;;8.00;99.90;;;;;;5060985;28;20044;-52
2022/01/29 06:03:13;;;;;;;28.02;15.77;;;8.50;99.90;;;;;;5060385;28;20664;-50
2022/01/29 06:05:39;;;;;;;24.98;13.13;;;7.90;99.90;;;;;;5061149;28;20060;-51
2022/01/29 06:08:05;;;;;;;24.38;13.98;;;8.20;99.90;;;;;;5062163;28;20070;-51
2022/01/29 06:10:31;;;;;;;31.73;14.60;;;8.10;99.90;;;;;;5059282;28;20029;-50
2022/01/29 06:13:06;;;;;;;25.95;13.63;;;8.00;99.90;;;;;;5061282;28;20032;-51
2022/01/29 06:15:38;;;;;;;23.25;13.20;;;7.90;99.90;;;;;;5060377;28;20755;-51
2022/01/29 06:18:03;;;;;;;29.52;14.82;;;9.20;99.90;;;;;;5058860;28;20489;-50
2022/01/29 06:20:29;;;;;;;28.00;14.35;;;9.10;99.90;;;;;;5060063;28;20051;-52
2022/01/29 06:22:55;;;;;;;23.23;13.52;;;8.80;99.90;;;;;;5059723;28;20132;-48
2022/01/29 06:25:21;;;;;;;34.05;14.52;;;8.10;99.90;;;;;;5058546;28;20036;-52
2022/01/29 06:27:47;;;;;;;29.90;15.07;;;8.20;99.90;;;;;;5060387;28;20386;-52
2022/01/29 06:30:14;;;;;;;29.02;13.90;;;8.10;99.90;;;;;;5059040;28;20051;-52
2022/01/29 06:32:40;;;;;;;22.58;14.30;;;10.10;99.90;;;;;;5060128;28;20041;-50
2022/01/29 06:35:09;;;;;;;25.75;13.40;;;8.00;99.90;;;;;;5060208;28;20048;-49
2022/01/29 06:37:34;;;;;;;23.15;14.45;;;8.10;99.90;;;;;;5058966;28;20055;-50
2022/01/29 06:40:00;;;;;;;30.45;12.95;;;8.80;99.90;;;;;;5060857;28;20778;-49
2022/01/29 06:42:25;;;;;;;23.50;13.63;;;8.10;99.90;;;;;;5060725;28;20045;-51
2022/01/29 06:44:51;;;;;;;24.13;13.65;;;9.10;99.90;;;;;;5060074;28;20041;-48
2022/01/29 06:47:17;;;;;;;23.50;13.70;;;8.10;99.90;;;;;;5060525;28;20366;-51
2022/01/29 06:49:46;;;;;;;21.75;13.45;;;8.10;99.90;;;;;;5060560;28;20037;-52
2022/01/29 06:52:12;;;;;;;21.42;12.57;;;8.10;99.90;;;;;;5059103;28;20094;-51
2022/01/29 06:54:38;;;;;;;26.40;14.63;;;9.50;99.90;;;;;;5060472;28;20076;-52
2022/01/29 06:57:04;;;;;;;24.08;13.48;;;8.20;99.90;;;;;;5060134;28;20200;-52
2022/01/29 06:59:32;;;;;;;24.48;13.40;;;8.00;99.90;;;;;;5059850;28;20048;-51
2022/01/29 07:01:57;;;;;;;19.63;12.32;;;8.10;99.90;;;;;;5059718;28;20119;-51
2022/01/29 07:04:23;;;;;;;32.53;13.77;;;8.20;99.90;;;;;;5059129;28;20039;-52
2022/01/29 07:06:49;;;;;;;27.88;12.88;;;8.10;99.90;;;;;;5058909;28;20028;-50
2022/01/29 07:09:15;;;;;;;27.50;13.63;;;8.10;99.90;;;;;;5059546;28;20029;-52
2022/01/29 07:11:44;;;;;;;24.40;12.45;;;8.10;99.90;;;;;;5058555;28;20477;-53
2022/01/29 07:14:17;;;;;;;24.13;12.65;;;8.50;99.90;;;;;;5059363;28;20090;-52
2022/01/29 07:16:43;;;;;;;;;;;10.00;99.90;;;;;;5059967;28;20063;-52
2022/01/29 07:19:09;;;;;;;22.70;11.95;;;8.20;99.90;;;;;;5058145;28;20327;-52
2022/01/29 07:21:35;;;;;;;23.65;12.55;;;8.20;99.90;;;;;;5017851;28;1196209;-48
2022/01/29 07:24:01;;;;;;;21.42;12.15;;;9.90;99.90;;;;;;5058912;28;20434;-49
2022/01/29 07:26:27;;;;;;;22.83;11.63;;;8.10;99.90;;;;;;5058341;28;20131;-52
2022/01/29 07:28:53;;;;;;;27.30;12.82;;;9.60;99.90;;;;;;5058844;28;20143;-52
2022/01/29 07:31:18;;;;;;;23.90;12.40;;;8.00;99.90;;;;;;5060003;28;20037;-53
2022/01/29 07:33:44;;;;;;;23.38;12.63;;;7.90;99.90;;;;;;5060052;28;20053;-53
2022/01/29 07:36:13;;;;;;;19.73;11.63;;;8.20;99.90;;;;;;5060787;28;20086;-50
2022/01/29 07:38:39;;;;;;;22.85;12.15;;;8.00;99.90;;;;;;5059169;28;20043;-49
2022/01/29 07:41:04;;;;;;;21.70;11.27;;;8.10;99.90;;;;;;5059570;28;20041;-47
2022/01/29 07:43:32;;;;;;;22.17;12.00;;;8.10;99.90;;;;;;5058304;28;20032;-50
2022/01/29 07:45:57;;;;;;;25.13;12.77;;;8.20;99.90;;;;;;5058693;28;20029;-53
2022/01/29 07:48:24;;;;;;;27.15;10.98;;;8.90;99.90;;;;;;5061683;28;20074;-51
2022/01/29 07:50:50;;;;;;;21.52;11.00;;;8.10;99.90;;;;;;5063340;28;20040;-53
2022/01/29 07:53:16;;;;;;;22.60;10.32;;;8.20;99.90;;;;;;5063823;28;20393;-52
2022/01/29 07:55:41;;;;;;;17.88;10.73;;;9.40;99.90;;;;;;5064179;28;20041;-51
2022/01/29 07:58:11;;;;;;;20.95;10.07;;;8.30;99.90;;;;;;5063570;28;20040;-49
2022/01/29 08:00:36;;;;;;;18.17;10.98;;;8.30;99.90;;;;;;5063759;28;20032;-51
2022/01/29 08:03:03;;;;;;;20.27;10.77;;;8.70;99.90;;;;;;5062562;28;20040;-48
2022/01/29 08:05:34;;;;;;;22.05;10.90;;;8.20;99.90;;;;;;5062406;28;20055;-50
2022/01/29 08:08:00;;;;;;;24.15;10.55;;;8.40;99.90;;;;;;5061949;28;20079;-52
2022/01/29 08:10:26;;;;;;;17.90;9.13;;;8.20;99.90;;;;;;5063042;28;20071;-52
2022/01/29 08:12:52;;;;;;;18.20;9.10;;;8.30;99.90;;;;;;5063280;28;20025;-48
2022/01/29 08:15:17;;;;;;;16.65;8.73;;;8.40;99.90;;;;;;5064063;28;20043;-52
2022/01/29 08:17:43;;;;;;;20.25;9.45;;;9.50;99.90;;;;;;5064553;28;20039;-54
2022/01/29 08:20:12;;;;;;;19.25;8.77;;;8.30;99.90;;;;;;5064457;28;20052;-51
2022/01/29 08:22:38;;;;;;;18.85;8.45;;;8.40;99.90;;;;;;5063767;28;20048;-50
2022/01/29 08:25:05;;;;;;;20.52;9.02;;;10.40;99.90;;;;;;5062415;28;20329;-54
2022/01/29 08:27:32;;;;;;;14.15;7.80;;;6.60;99.90;;;;;;5063390;28;20787;-50
2022/01/29 08:29:58;;;;;;;18.63;9.57;;;8.30;99.90;;;;;;5062839;28;20068;-50
2022/01/29 08:32:24;;;;;;;18.63;8.35;;;8.50;99.90;;;;;;5062153;28;20060;-57
2022/01/29 08:34:49;;;;;;;13.52;6.80;;;8.40;99.90;;;;;;5061583;28;20523;-57
2022/01/29 08:37:15;;;;;;;17.25;7.22;;;8.40;99.90;;;;;;5060921;28;20424;-57
2022/01/29 08:39:41;;;;;;;18.63;7.72;;;8.60;99.90;;;;;;5064180;28;20032;-57
2022/01/29 08:42:09;;;;;;;18.30;6.53;;;8.50;99.90;;;;;;5061423;28;20111;-57
2022/01/29 08:44:35;;;;;;;15.20;6.68;;;8.60;99.90;;;;;;5061404;28;20058;-57
2022/01/29 08:47:02;;;;;;;15.88;6.20;;;8.80;99.90;;;;;;5061698;28;20040;-57
2022/01/29 08:49:27;;;;;;;13.80;6.40;;;8.80;99.90;;;;;;5063124;28;20432;-57
2022/01/29 08:51:53;;;;;;;15.48;6.05;;;9.10;99.90;;;;;;5061449;28;20044;-57
2022/01/29 08:54:19;;;;;;;16.92;5.90;;;9.50;99.90;;;;;;5062131;28;20037;-58
2022/01/29 08:56:45;;;;;;;21.52;6.75;;;9.20;99.90;;;;;;5062079;28;20044;-57
2022/01/29 08:59:10;;;;;;;12.88;5.15;;;8.80;99.90;;;;;;5061235;28;20137;-57
2022/01/29 09:01:36;;;;;;;11.88;5.63;;;8.80;99.90;;;;;;5061874;28;20036;-58
2022/01/29 09:04:04;;;;;;;11.63;4.70;;;8.70;99.90;;;;;;5060964;28;20046;-57
2022/01/29 09:06:30;;;;;;;12.70;5.32;;;8.80;99.90;;;;;;5062388;28;20513;-57
2022/01/29 09:08:55;;;;;;;11.90;4.55;;;9.00;99.90;;;;;;5062176;28;20032;-57
2022/01/29 09:11:25;;;;;;;10.48;4.72;;;8.90;99.90;;;;;;5061891;28;20037;-58
2022/01/29 09:13:50;;;;;;;9.35;5.00;;;8.90;99.90;;;;;;5060627;28;20043;-57
2022/01/29 09:16:16;;;;;;;9.02;4.22;;;9.70;99.90;;;;;;5061457;28;20131;-57
2022/01/29 09:18:42;;;;;;;11.95;4.75;;;10.00;99.90;;;;;;5061250;28;20115;-57
2022/01/29 09:21:08;;;;;;;16.27;5.13;;;9.60;99.90;;;;;;5060637;28;20743;-58
2022/01/29 09:23:33;;;;;;;9.55;4.47;;;9.30;99.90;;;;;;5062249;28;20361;-57
2022/01/29 09:26:01;;;;;;;13.15;4.60;;;9.10;99.90;;;;;;5062193;28;20667;-57
2022/01/29 09:28:27;;;;;;;12.63;4.70;;;9.00;99.90;;;;;;5062022;28;20036;-57
2022/01/29 09:30:52;;;;;;;11.88;4.82;;;9.00;99.90;;;;;;5062413;28;20049;-57
2022/01/29 09:33:18;;;;;;;13.90;5.00;;;9.40;99.90;;;;;;5063399;28;20040;-57
2022/01/29 09:35:44;;;;;;;13.02;4.40;;;9.10;99.90;;;;;;5062058;28;20052;-57
2022/01/29 09:38:11;;;;;;;15.07;4.07;;;10.00;99.90;;;;;;5062086;28;20242;-57
2022/01/29 09:40:42;;;;;;;14.57;3.90;;;9.50;99.90;;;;;;5061872;28;20036;-57
2022/01/29 09:43:09;;;;;;;9.38;3.90;;;9.10;99.90;;;;;;5060631;28;20048;-56
2022/01/29 09:45:36;;;;;;;10.43;3.70;;;10.40;99.90;;;;;;5061390;28;20071;-57
2022/01/29 09:48:03;;;;;;;10.38;3.60;;;9.00;99.90;;;;;;5062576;28;20036;-57
2022/01/29 09:50:35;;;;;;;10.48;3.90;;;9.10;99.90;;;;;;5061230;28;20067;-57
2022/01/29 09:53:01;;;;;;;;;;;9.10;99.90;;;;;;5060894;28;20036;-57
2022/01/29 09:55:29;;;;;;;12.48;3.40;;;9.10;99.90;;;;;;5060359;28;20424;-57
2022/01/29 09:57:56;;;;;;;13.57;3.92;;;9.90;99.90;;;;;;5060150;28;20040;-57
2022/01/29 10:00:23;;;;;;;9.35;2.80;;;10.20;99.90;;;;;;5061335;28;20102;-57
2022/01/29 10:03:19;;;;;;;13.40;3.22;;;9.20;99.90;;;;;;5062089;28;20040;-58
2022/01/29 10:05:51;;;;;;;9.20;3.30;;;9.00;99.90;;;;;;5006605;28;20457;-57
2022/01/29 10:08:18;;;;;;;13.13;4.38;;;9.30;99.90;;;;;;5001672;28;20049;-57
2022/01/29 10:10:46;;;;;;;11.80;2.55;;;9.30;99.90;;;;;;5007969;28;20084;-57
2022/01/29 10:13:34;;;;;;;12.68;3.80;;;9.00;99.90;;;;;;5013099;28;20604;-57
2022/01/29 10:16:12;;;;;;;9.20;2.58;;;9.30;99.90;;;;;;5004265;28;20053;-57
2022/01/29 10:18:40;;;;;;;14.50;2.60;;;10.30;99.90;;;;;;5000266;28;20423;-57
2022/01/29 10:21:15;;;;;;;12.75;3.22;;;10.00;99.90;;;;;;4999930;28;20049;-57
2022/01/29 10:23:41;;;;;;;14.05;3.60;;;9.40;99.90;;;;;;5008875;28;20152;-57
2022/01/29 10:26:10;;;;;;;10.23;2.33;;;9.40;99.90;;;;;;4998506;28;20419;-58
2022/01/29 10:28:38;;;;;;;9.05;2.42;;;9.40;99.90;;;;;;5010237;28;20498;-57
2022/01/29 10:31:06;;;;;;;13.30;2.45;;;10.00;99.90;;;;;;5011115;28;20045;-57
2022/01/29 10:33:38;;;;;;;11.63;2.20;;;9.40;99.90;;;;;;5010616;28;20476;-57
2022/01/29 10:36:06;;;;;;;12.13;3.35;;;11.10;99.90;;;;;;5011422;28;20057;-57
2022/01/29 10:38:40;;;;;;;12.75;3.08;;;9.50;99.90;;;;;;5009729;28;20052;-57
2022/01/29 10:41:31;;;;;;;10.63;2.20;;;9.50;99.90;;;;;;5013652;28;20095;-57
2022/01/29 10:44:24;;;;;;;8.25;2.17;;;9.40;99.90;;;;;;5059898;28;21236;-57
2022/01/29 10:46:51;;;;;;;;;;;9.50;99.90;;;;;;5002420;28;20050;-57
2022/01/29 10:49:28;;;;;;;10.50;2.53;;;9.60;99.90;;;;;;4997705;28;19921;-57
2022/01/29 10:52:01;;;;;;;8.85;2.60;;;9.50;99.90;;;;;;5004633;28;20518;-57
2022/01/29 10:54:28;;;;;;;9.32;2.17;;;9.60;99.90;;;;;;5000162;28;20037;-57
2022/01/29 10:56:54;;;;;;;13.98;2.30;;;9.60;99.90;;;;;;5012506;28;20045;-57
2022/01/29 10:59:21;;;;;;;13.05;2.40;;;9.70;99.90;;;;;;5000851;28;20506;-58
2022/01/29 11:01:55;;;;;;;10.88;3.00;;;9.60;99.90;;;;;;5012590;28;20114;-57
2022/01/29 11:04:21;;;;;;;7.97;2.95;;;9.70;99.90;;;;;;5011325;28;20069;-57
2022/01/29 11:06:50;;;;;;;14.98;3.05;;;9.60;99.90;;;;;;5008875;28;20141;-57
2022/01/29 11:09:16;;;;;;;12.90;3.42;;;10.50;99.90;;;;;;5015756;28;20756;-58
2022/01/29 11:11:45;;;;;;;9.55;2.00;;;10.30;99.90;;;;;;5005912;28;20157;-57
2022/01/29 11:14:18;;;;;;;12.30;1.90;;;11.20;99.90;;;;;;5006096;28;20037;-57
2022/01/29 11:16:45;;;;;;;10.00;2.55;;;10.00;99.90;;;;;;5003955;28;20108;-57
2022/01/29 11:19:12;;;;;;;11.18;2.20;;;10.90;99.90;;;;;;5007331;28;20112;-57
2022/01/29 11:21:41;;;;;;;9.85;2.08;;;9.50;99.90;;;;;;5004930;28;21165;-58
2022/01/29 11:24:09;;;;;;;13.27;2.53;;;9.90;99.90;;;;;;5043793;28;20393;-57
2022/01/29 11:26:36;;;;;;;10.52;1.98;;;9.80;99.90;;;;;;5064323;28;20045;-58
2022/01/29 11:29:24;;;;;;;9.02;1.77;;;9.80;99.90;;;;;;5063725;28;20048;-57
2022/01/29 11:32:21;;;;;;;11.20;2.30;;;10.00;99.90;;;;;;5062169;28;20032;-58
2022/01/29 11:35:11;;;;;;;14.07;2.83;;;9.70;99.90;;;;;;5061417;28;20041;-55
2022/01/29 11:37:45;;;;;;;10.75;2.05;;;9.80;99.90;;;;;;5063029;28;20179;-57
2022/01/29 11:40:13;;;;;;;11.75;2.58;;;9.90;99.90;;;;;;5064051;28;20032;-57
2022/01/29 11:43:03;;;;;;;14.02;3.53;;;10.00;99.90;;;;;;5063184;28;20049;-57
2022/01/29 11:45:45;;;;;;;15.07;2.60;;;10.10;99.90;;;;;;5063251;28;20056;-57
2022/01/29 11:48:34;;;;;;;;;;;10.00;99.90;;;;;;5062747;28;20044;-57
2022/01/29 11:51:08;;;;;;;12.18;2.42;;;10.00;99.90;;;;;;4993603;28;19925;-57
2022/01/29 11:53:49;;;;;;;11.13;2.10;;;10.10;99.90;;;;;;4987110;28;20061;-57
2022/01/29 11:56:38;;;;;;;13.02;2.35;;;10.20;99.90;;;;;;4986149;28;20604;-57
2022/01/29 11:59:19;;;;;;;9.35;1.80;;;11.00;99.90;;;;;;4983780;28;20078;-57
2022/01/29 12:01:47;;;;;;;12.32;2.40;;;10.10;99.90;;;;;;4998262;28;20541;-57
2022/01/29 12:04:16;;;;;;;5.03;1.33;;;11.00;99.90;;;;;;4994037;28;20046;-58
2022/01/29 12:07:13;;;;;;;11.85;2.20;;;10.10;99.90;;;;;;4992092;28;20056;-57
2022/01/29 12:09:43;;;;;;;14.23;1.65;;;10.20;99.90;;;;;;4983250;28;20136;-57
2022/01/29 12:12:25;;;;;;;11.88;2.10;;;10.20;99.90;;;;;;4970953;28;20117;-57
2022/01/29 12:14:53;;;;;;;7.63;1.98;;;10.20;99.90;;;;;;4988529;28;20049;-57
2022/01/29 12:17:45;;;;;;;7.82;1.80;;;11.00;99.90;;;;;;4997966;28;20092;-57
2022/01/29 12:20:18;;;;;;;12.02;2.78;;;10.30;99.90;;;;;;4971812;28;20053;-57
2022/01/29 12:22:44;;;;;;;8.73;1.70;;;10.40;99.90;;;;;;4994157;28;20519;-58
2022/01/29 12:25:16;;;;;;;5.50;1.35;;;10.50;99.90;;;;;;4984699;28;20137;-57
2022/01/29 12:27:48;;;;;;;13.82;2.28;;;11.30;99.90;;;;;;5017172;28;20594;-57
2022/01/29 12:30:26;;;;;;;13.52;2.78;;;10.50;99.90;;;;;;5062724;28;20036;-57
2022/01/29 12:32:58;;;;;;;12.50;2.05;;;10.40;99.90;;;;;;5064626;28;20040;-57
2022/01/29 12:35:35;;;;;;;13.93;1.90;;;10.30;99.90;;;;;;5063927;28;20040;-57
2022/01/29 12:38:03;;;;;;;7.93;2.00;;;10.50;99.90;;;;;;5062721;28;20044;-57
2022/01/29 12:40:35;;;;;;;9.00;1.70;;;11.60;99.90;;;;;;5063924;28;20037;-57
2022/01/29 12:43:10;;;;;;;13.93;2.30;;;10.40;99.90;;;;;;5064078;28;20554;-58
2022/01/29 12:45:38;;;;;;;13.27;1.90;;;10.50;99.90;;;;;;5063192;28;20067;-57
2022/01/29 12:48:11;;;;;;;12.48;1.85;;;10.30;99.90;;;;;;5062084;28;20047;-57
2022/01/29 12:50:38;;;;;;;14.02;2.13;;;10.50;99.90;;;;;;5060861;28;20124;-57
2022/01/29 12:53:17;;;;;;;11.88;2.05;;;11.10;99.90;;;;;;5062116;28;20040;-57
2022/01/29 12:55:43;;;;;;;13.13;1.83;;;10.40;99.90;;;;;;5062375;28;20044;-57
2022/01/29 12:58:09;;;;;;;13.32;2.35;;;10.60;99.90;;;;;;5060947;28;20054;-57
2022/01/29 13:00:36;;;;;;;8.93;2.33;;;10.50;99.90;;;;;;5062002;28;20048;-57